sensor_id;sensor_type;location;lat;lon;timestamp;P1;durP1;ratioP1;P2;durP2;ratioP2
13969;SDS011;7057;49.984;8.404;2022-08-19T00:00:32;14.93;;;11.70;;
13969;SDS011;7057;49.984;8.404;2022-08-19T00:02:59;14.25;;;11.75;;
13969;SDS011;7057;49.984;8.404;2022-08-19T00:05:26;13.43;;;11.38;;
13969;SDS011;7057;49.984;8.404;2022-08-19T00:07:55;13.80;;;11.15;;
13969;SDS011;7057;49.984;8.404;2022-08-19T00:10:22;14.43;;;12.18;;
13969;SDS011;7057;49.984;8.404;2022-08-19T00:12:50;15.57;;;11.98;;
13969;SDS011;7057;49.984;8.404;2022-08-19T00:15:18;13.00;;;11.00;;
13969;SDS011;7057;49.984;8.404;2022-08-19T00:17:47;15.52;;;12.15;;
13969;SDS011;7057;49.984;8.404;2022-08-19T00:20:16;14.65;;;11.80;;
13969;SDS011;7057;49.984;8.404;2022-08-19T00:22:45;13.57;;;12.10;;
13969;SDS011;7057;49.984;8.404;2022-08-19T00:25:15;14.82;;;12.13;;
13969;SDS011;7057;49.984;8.404;2022-08-19T00:27:43;13.97;;;11.43;;
13969;SDS011;7057;49.984;8.404;2022-08-19T00:30:11;14.90;;;11.85;;
13969;SDS011;7057;49.984;8.404;2022-08-19T00:32:39;14.70;;;11.00;;
13969;SDS011;7057;49.984;8.404;2022-08-19T00:35:06;15.80;;;12.20;;
13969;SDS011;7057;49.984;8.404;2022-08-19T00:37:35;14.15;;;12.10;;
13969;SDS011;7057;49.984;8.404;2022-08-19T00:40:03;13.50;;;11.68;;
13969;SDS011;7057;49.984;8.404;2022-08-19T00:42:33;14.52;;;12.00;;
13969;SDS011;7057;49.984;8.404;2022-08-19T00:45:00;13.95;;;12.18;;
13969;SDS011;7057;49.984;8.404;2022-08-19T00:47:27;14.52;;;12.05;;
13969;SDS011;7057;49.984;8.404;2022-08-19T00:49:55;14.68;;;12.32;;
13969;SDS011;7057;49.984;8.404;2022-08-19T00:52:26;14.43;;;12.70;;
13969;SDS011;7057;49.984;8.404;2022-08-19T00:54:55;15.52;;;13.05;;
13969;SDS011;7057;49.984;8.404;2022-08-19T00:57:27;15.40;;;12.52;;
13969;SDS011;7057;49.984;8.404;2022-08-19T00:59:59;15.73;;;12.77;;
13969;SDS011;7057;49.984;8.404;2022-08-19T01:02:30;14.63;;;13.03;;
13969;SDS011;7057;49.984;8.404;2022-08-19T01:04:59;16.85;;;13.95;;
13969;SDS011;7057;49.984;8.404;2022-08-19T01:07:31;16.67;;;13.18;;
13969;SDS011;7057;49.984;8.404;2022-08-19T01:10:00;16.15;;;13.75;;
13969;SDS011;7057;49.984;8.404;2022-08-19T01:12:28;16.17;;;13.27;;
13969;SDS011;7057;49.984;8.404;2022-08-19T01:14:56;15.82;;;13.70;;
13969;SDS011;7057;49.984;8.404;2022-08-19T01:17:27;16.52;;;14.05;;
13969;SDS011;7057;49.984;8.404;2022-08-19T01:19:54;16.08;;;13.85;;
13969;SDS011;7057;49.984;8.404;2022-08-19T01:22:27;17.05;;;14.57;;
13969;SDS011;7057;49.984;8.404;2022-08-19T01:24:56;17.00;;;13.83;;
13969;SDS011;7057;49.984;8.404;2022-08-19T01:27:24;17.60;;;14.52;;
13969;SDS011;7057;49.984;8.404;2022-08-19T01:29:51;15.90;;;14.20;;
13969;SDS011;7057;49.984;8.404;2022-08-19T01:32:20;18.63;;;14.25;;
13969;SDS011;7057;49.984;8.404;2022-08-19T01:34:47;17.48;;;14.48;;
13969;SDS011;7057;49.984;8.404;2022-08-19T01:37:15;16.80;;;14.05;;
13969;SDS011;7057;49.984;8.404;2022-08-19T01:39:44;19.52;;;15.35;;
13969;SDS011;7057;49.984;8.404;2022-08-19T01:42:11;17.67;;;14.57;;
13969;SDS011;7057;49.984;8.404;2022-08-19T01:44:39;19.35;;;14.57;;
13969;SDS011;7057;49.984;8.404;2022-08-19T01:47:07;16.02;;;13.65;;
13969;SDS011;7057;49.984;8.404;2022-08-19T01:49:36;17.00;;;14.60;;
13969;SDS011;7057;49.984;8.404;2022-08-19T01:52:06;16.88;;;14.43;;
13969;SDS011;7057;49.984;8.404;2022-08-19T01:54:34;17.40;;;14.20;;
13969;SDS011;7057;49.984;8.404;2022-08-19T01:57:06;16.13;;;13.82;;
13969;SDS011;7057;49.984;8.404;2022-08-19T01:59:36;16.13;;;13.43;;
13969;SDS011;7057;49.984;8.404;2022-08-19T02:02:05;16.20;;;13.80;;
13969;SDS011;7057;49.984;8.404;2022-08-19T02:04:34;16.33;;;14.13;;
13969;SDS011;7057;49.984;8.404;2022-08-19T02:07:03;16.00;;;14.27;;
13969;SDS011;7057;49.984;8.404;2022-08-19T02:09:34;18.08;;;14.45;;
13969;SDS011;7057;49.984;8.404;2022-08-19T02:12:02;15.80;;;13.57;;
13969;SDS011;7057;49.984;8.404;2022-08-19T02:14:35;16.92;;;13.07;;
13969;SDS011;7057;49.984;8.404;2022-08-19T02:17:06;17.65;;;14.80;;
13969;SDS011;7057;49.984;8.404;2022-08-19T02:19:34;15.75;;;14.00;;
13969;SDS011;7057;49.984;8.404;2022-08-19T02:22:02;16.63;;;13.63;;
13969;SDS011;7057;49.984;8.404;2022-08-19T02:24:29;17.08;;;15.30;;
13969;SDS011;7057;49.984;8.404;2022-08-19T02:26:56;17.65;;;14.95;;
13969;SDS011;7057;49.984;8.404;2022-08-19T02:29:25;16.67;;;14.70;;
13969;SDS011;7057;49.984;8.404;2022-08-19T02:31:53;17.50;;;14.40;;
13969;SDS011;7057;49.984;8.404;2022-08-19T02:34:20;17.10;;;14.68;;
13969;SDS011;7057;49.984;8.404;2022-08-19T02:36:47;19.00;;;14.57;;
13969;SDS011;7057;49.984;8.404;2022-08-19T02:39:15;15.43;;;13.73;;
13969;SDS011;7057;49.984;8.404;2022-08-19T02:41:42;16.65;;;14.35;;
13969;SDS011;7057;49.984;8.404;2022-08-19T02:44:09;15.88;;;13.68;;
13969;SDS011;7057;49.984;8.404;2022-08-19T02:46:39;15.98;;;13.65;;
13969;SDS011;7057;49.984;8.404;2022-08-19T02:49:07;16.08;;;14.25;;
13969;SDS011;7057;49.984;8.404;2022-08-19T02:51:36;16.50;;;14.40;;
13969;SDS011;7057;49.984;8.404;2022-08-19T02:54:05;17.70;;;14.00;;
13969;SDS011;7057;49.984;8.404;2022-08-19T02:56:35;16.00;;;14.20;;
13969;SDS011;7057;49.984;8.404;2022-08-19T02:59:04;17.10;;;13.93;;
13969;SDS011;7057;49.984;8.404;2022-08-19T03:01:37;16.65;;;14.85;;
13969;SDS011;7057;49.984;8.404;2022-08-19T03:04:08;16.90;;;14.07;;
13969;SDS011;7057;49.984;8.404;2022-08-19T03:06:40;15.20;;;13.57;;
13969;SDS011;7057;49.984;8.404;2022-08-19T03:09:10;17.50;;;14.60;;
13969;SDS011;7057;49.984;8.404;2022-08-19T03:11:39;17.75;;;13.80;;
13969;SDS011;7057;49.984;8.404;2022-08-19T03:14:09;15.98;;;13.73;;
13969;SDS011;7057;49.984;8.404;2022-08-19T03:16:44;15.68;;;14.00;;
13969;SDS011;7057;49.984;8.404;2022-08-19T03:19:15;16.85;;;15.05;;
13969;SDS011;7057;49.984;8.404;2022-08-19T03:21:45;17.38;;;14.40;;
13969;SDS011;7057;49.984;8.404;2022-08-19T03:24:13;15.90;;;13.32;;
13969;SDS011;7057;49.984;8.404;2022-08-19T03:26:42;16.13;;;14.00;;
13969;SDS011;7057;49.984;8.404;2022-08-19T03:29:14;16.50;;;13.73;;
13969;SDS011;7057;49.984;8.404;2022-08-19T03:31:44;17.67;;;14.65;;
13969;SDS011;7057;49.984;8.404;2022-08-19T03:34:12;16.38;;;14.30;;
13969;SDS011;7057;49.984;8.404;2022-08-19T03:36:43;15.85;;;14.13;;
13969;SDS011;7057;49.984;8.404;2022-08-19T03:39:12;15.77;;;13.45;;
13969;SDS011;7057;49.984;8.404;2022-08-19T03:41:40;14.75;;;13.13;;
13969;SDS011;7057;49.984;8.404;2022-08-19T03:44:08;16.90;;;13.95;;
13969;SDS011;7057;49.984;8.404;2022-08-19T03:46:35;16.70;;;13.33;;
13969;SDS011;7057;49.984;8.404;2022-08-19T03:49:04;16.13;;;14.07;;
13969;SDS011;7057;49.984;8.404;2022-08-19T03:51:33;15.75;;;13.75;;
13969;SDS011;7057;49.984;8.404;2022-08-19T03:54:03;16.23;;;13.45;;
13969;SDS011;7057;49.984;8.404;2022-08-19T03:56:33;17.23;;;13.77;;
13969;SDS011;7057;49.984;8.404;2022-08-19T03:59:01;15.60;;;13.32;;
13969;SDS011;7057;49.984;8.404;2022-08-19T04:01:29;14.45;;;12.93;;
13969;SDS011;7057;49.984;8.404;2022-08-19T04:03:57;15.82;;;13.90;;
13969;SDS011;7057;49.984;8.404;2022-08-19T04:06:28;15.95;;;13.45;;
13969;SDS011;7057;49.984;8.404;2022-08-19T04:08:58;13.93;;;12.52;;
13969;SDS011;7057;49.984;8.404;2022-08-19T04:11:28;14.63;;;13.03;;
13969;SDS011;7057;49.984;8.404;2022-08-19T04:13:57;14.30;;;12.50;;
13969;SDS011;7057;49.984;8.404;2022-08-19T04:16:26;15.25;;;12.90;;
13969;SDS011;7057;49.984;8.404;2022-08-19T04:18:54;15.73;;;12.88;;
13969;SDS011;7057;49.984;8.404;2022-08-19T04:21:24;13.88;;;12.38;;
13969;SDS011;7057;49.984;8.404;2022-08-19T04:23:53;13.02;;;11.73;;
13969;SDS011;7057;49.984;8.404;2022-08-19T04:26:22;14.65;;;12.23;;
13969;SDS011;7057;49.984;8.404;2022-08-19T04:28:50;14.52;;;12.35;;
13969;SDS011;7057;49.984;8.404;2022-08-19T04:31:21;14.33;;;11.80;;
13969;SDS011;7057;49.984;8.404;2022-08-19T04:33:51;13.13;;;11.70;;
13969;SDS011;7057;49.984;8.404;2022-08-19T04:36:20;13.73;;;11.90;;
13969;SDS011;7057;49.984;8.404;2022-08-19T04:38:49;13.15;;;10.95;;
13969;SDS011;7057;49.984;8.404;2022-08-19T04:41:20;12.52;;;11.18;;
13969;SDS011;7057;49.984;8.404;2022-08-19T04:44:05;13.48;;;12.02;;
13969;SDS011;7057;49.984;8.404;2022-08-19T04:46:32;13.05;;;11.25;;
13969;SDS011;7057;49.984;8.404;2022-08-19T04:49:00;12.48;;;10.93;;
13969;SDS011;7057;49.984;8.404;2022-08-19T04:51:30;13.15;;;11.48;;
13969;SDS011;7057;49.984;8.404;2022-08-19T04:53:58;13.60;;;11.60;;
13969;SDS011;7057;49.984;8.404;2022-08-19T04:56:28;13.52;;;11.82;;
13969;SDS011;7057;49.984;8.404;2022-08-19T04:58:56;15.45;;;12.52;;
13969;SDS011;7057;49.984;8.404;2022-08-19T05:01:25;14.45;;;11.63;;
13969;SDS011;7057;49.984;8.404;2022-08-19T05:03:55;14.30;;;11.77;;
13969;SDS011;7057;49.984;8.404;2022-08-19T05:06:23;13.80;;;12.00;;
13969;SDS011;7057;49.984;8.404;2022-08-19T05:08:50;14.33;;;12.27;;
13969;SDS011;7057;49.984;8.404;2022-08-19T05:11:20;14.13;;;11.48;;
13969;SDS011;7057;49.984;8.404;2022-08-19T05:13:50;14.80;;;11.27;;
13969;SDS011;7057;49.984;8.404;2022-08-19T05:16:18;14.23;;;12.40;;
13969;SDS011;7057;49.984;8.404;2022-08-19T05:18:47;16.27;;;12.52;;
13969;SDS011;7057;49.984;8.404;2022-08-19T05:21:33;12.95;;;11.50;;
13969;SDS011;7057;49.984;8.404;2022-08-19T05:24:19;12.32;;;11.02;;
13969;SDS011;7057;49.984;8.404;2022-08-19T05:26:48;13.27;;;11.90;;
13969;SDS011;7057;49.984;8.404;2022-08-19T05:29:20;14.70;;;12.63;;
13969;SDS011;7057;49.984;8.404;2022-08-19T05:31:48;14.40;;;12.52;;
13969;SDS011;7057;49.984;8.404;2022-08-19T05:34:16;14.47;;;12.17;;
13969;SDS011;7057;49.984;8.404;2022-08-19T05:36:47;13.68;;;12.27;;
13969;SDS011;7057;49.984;8.404;2022-08-19T05:39:18;14.50;;;12.93;;
13969;SDS011;7057;49.984;8.404;2022-08-19T05:41:48;13.55;;;11.55;;
13969;SDS011;7057;49.984;8.404;2022-08-19T05:44:17;13.40;;;11.50;;
13969;SDS011;7057;49.984;8.404;2022-08-19T05:46:46;13.50;;;11.60;;
13969;SDS011;7057;49.984;8.404;2022-08-19T05:49:14;13.00;;;11.00;;
13969;SDS011;7057;49.984;8.404;2022-08-19T05:51:42;12.50;;;11.20;;
13969;SDS011;7057;49.984;8.404;2022-08-19T05:54:09;13.00;;;11.27;;
13969;SDS011;7057;49.984;8.404;2022-08-19T05:56:39;12.48;;;11.27;;
13969;SDS011;7057;49.984;8.404;2022-08-19T05:59:07;12.02;;;10.70;;
13969;SDS011;7057;49.984;8.404;2022-08-19T06:01:38;12.05;;;10.85;;
13969;SDS011;7057;49.984;8.404;2022-08-19T06:04:07;12.35;;;10.63;;
13969;SDS011;7057;49.984;8.404;2022-08-19T06:06:35;13.27;;;11.27;;
13969;SDS011;7057;49.984;8.404;2022-08-19T06:09:03;12.27;;;10.98;;
13969;SDS011;7057;49.984;8.404;2022-08-19T06:11:32;12.55;;;11.25;;
13969;SDS011;7057;49.984;8.404;2022-08-19T06:14:02;12.48;;;11.18;;
13969;SDS011;7057;49.984;8.404;2022-08-19T06:16:33;12.70;;;11.02;;
13969;SDS011;7057;49.984;8.404;2022-08-19T06:19:03;14.10;;;11.25;;
13969;SDS011;7057;49.984;8.404;2022-08-19T06:21:33;13.98;;;12.00;;
13969;SDS011;7057;49.984;8.404;2022-08-19T06:24:02;12.00;;;10.70;;
13969;SDS011;7057;49.984;8.404;2022-08-19T06:26:32;12.75;;;10.68;;
13969;SDS011;7057;49.984;8.404;2022-08-19T06:29:01;13.10;;;11.20;;
13969;SDS011;7057;49.984;8.404;2022-08-19T06:31:29;12.93;;;10.93;;
13969;SDS011;7057;49.984;8.404;2022-08-19T06:33:59;13.95;;;11.85;;
13969;SDS011;7057;49.984;8.404;2022-08-19T06:36:29;12.25;;;10.95;;
13969;SDS011;7057;49.984;8.404;2022-08-19T06:38:59;12.87;;;11.10;;
13969;SDS011;7057;49.984;8.404;2022-08-19T06:41:27;11.80;;;10.52;;
13969;SDS011;7057;49.984;8.404;2022-08-19T06:43:56;12.40;;;11.05;;
13969;SDS011;7057;49.984;8.404;2022-08-19T06:46:24;12.18;;;10.88;;
13969;SDS011;7057;49.984;8.404;2022-08-19T06:48:51;11.52;;;10.30;;
13969;SDS011;7057;49.984;8.404;2022-08-19T06:51:21;13.65;;;11.05;;
13969;SDS011;7057;49.984;8.404;2022-08-19T06:53:49;11.43;;;10.23;;
13969;SDS011;7057;49.984;8.404;2022-08-19T06:56:18;10.38;;;9.30;;
13969;SDS011;7057;49.984;8.404;2022-08-19T06:58:48;12.18;;;9.38;;
13969;SDS011;7057;49.984;8.404;2022-08-19T07:01:17;11.35;;;9.95;;
13969;SDS011;7057;49.984;8.404;2022-08-19T07:03:45;10.90;;;9.80;;
13969;SDS011;7057;49.984;8.404;2022-08-19T07:06:14;10.30;;;8.70;;
13969;SDS011;7057;49.984;8.404;2022-08-19T07:08:44;10.45;;;9.35;;
13969;SDS011;7057;49.984;8.404;2022-08-19T07:11:13;12.13;;;9.65;;
13969;SDS011;7057;49.984;8.404;2022-08-19T07:13:43;10.88;;;9.70;;
13969;SDS011;7057;49.984;8.404;2022-08-19T07:16:12;9.60;;;8.43;;
13969;SDS011;7057;49.984;8.404;2022-08-19T07:18:41;8.82;;;7.65;;
13969;SDS011;7057;49.984;8.404;2022-08-19T07:21:10;9.23;;;7.35;;
13969;SDS011;7057;49.984;8.404;2022-08-19T07:23:39;7.53;;;6.47;;
13969;SDS011;7057;49.984;8.404;2022-08-19T07:26:09;7.70;;;6.90;;
13969;SDS011;7057;49.984;8.404;2022-08-19T07:28:38;9.30;;;7.57;;
13969;SDS011;7057;49.984;8.404;2022-08-19T07:31:05;9.13;;;6.93;;
13969;SDS011;7057;49.984;8.404;2022-08-19T07:33:33;7.57;;;6.18;;
13969;SDS011;7057;49.984;8.404;2022-08-19T07:36:02;8.70;;;7.50;;
13969;SDS011;7057;49.984;8.404;2022-08-19T07:38:31;8.52;;;7.53;;
13969;SDS011;7057;49.984;8.404;2022-08-19T07:40:58;8.43;;;6.53;;
13969;SDS011;7057;49.984;8.404;2022-08-19T07:43:27;8.05;;;7.22;;
13969;SDS011;7057;49.984;8.404;2022-08-19T07:45:54;8.63;;;6.88;;
13969;SDS011;7057;49.984;8.404;2022-08-19T07:48:22;10.15;;;7.20;;
13969;SDS011;7057;49.984;8.404;2022-08-19T07:50:50;9.80;;;8.32;;
13969;SDS011;7057;49.984;8.404;2022-08-19T07:53:19;8.52;;;6.97;;
13969;SDS011;7057;49.984;8.404;2022-08-19T07:55:46;8.80;;;7.85;;
13969;SDS011;7057;49.984;8.404;2022-08-19T07:58:15;8.35;;;7.13;;
13969;SDS011;7057;49.984;8.404;2022-08-19T08:00:46;9.27;;;6.85;;
13969;SDS011;7057;49.984;8.404;2022-08-19T08:03:15;8.18;;;7.30;;
13969;SDS011;7057;49.984;8.404;2022-08-19T08:05:44;9.73;;;8.73;;
13969;SDS011;7057;49.984;8.404;2022-08-19T08:08:29;7.88;;;7.07;;
13969;SDS011;7057;49.984;8.404;2022-08-19T08:11:14;10.55;;;8.65;;
13969;SDS011;7057;49.984;8.404;2022-08-19T08:13:43;12.93;;;11.52;;
13969;SDS011;7057;49.984;8.404;2022-08-19T08:16:12;11.40;;;9.73;;
13969;SDS011;7057;49.984;8.404;2022-08-19T08:18:39;12.13;;;9.53;;
13969;SDS011;7057;49.984;8.404;2022-08-19T08:21:07;13.50;;;11.32;;
13969;SDS011;7057;49.984;8.404;2022-08-19T08:23:35;11.88;;;10.57;;
13969;SDS011;7057;49.984;8.404;2022-08-19T08:26:02;11.30;;;10.20;;
13969;SDS011;7057;49.984;8.404;2022-08-19T08:28:30;11.40;;;9.57;;
13969;SDS011;7057;49.984;8.404;2022-08-19T08:30:57;11.40;;;8.88;;
13969;SDS011;7057;49.984;8.404;2022-08-19T08:33:27;8.65;;;7.75;;
13969;SDS011;7057;49.984;8.404;2022-08-19T08:35:56;9.87;;;8.43;;
13969;SDS011;7057;49.984;8.404;2022-08-19T08:38:23;10.07;;;7.80;;
13969;SDS011;7057;49.984;8.404;2022-08-19T08:40:52;8.60;;;7.80;;
13969;SDS011;7057;49.984;8.404;2022-08-19T08:43:32;8.25;;;7.13;;
13969;SDS011;7057;49.984;8.404;2022-08-19T08:46:03;7.50;;;6.47;;
13969;SDS011;7057;49.984;8.404;2022-08-19T08:48:34;7.25;;;6.55;;
13969;SDS011;7057;49.984;8.404;2022-08-19T08:51:07;7.20;;;6.50;;
13969;SDS011;7057;49.984;8.404;2022-08-19T08:53:38;8.18;;;7.30;;
13969;SDS011;7057;49.984;8.404;2022-08-19T08:56:08;7.90;;;7.10;;
13969;SDS011;7057;49.984;8.404;2022-08-19T08:58:41;7.75;;;6.07;;
13969;SDS011;7057;49.984;8.404;2022-08-19T09:01:14;6.68;;;6.03;;
13969;SDS011;7057;49.984;8.404;2022-08-19T09:03:43;7.53;;;6.82;;
13969;SDS011;7057;49.984;8.404;2022-08-19T09:06:12;9.52;;;8.60;;
13969;SDS011;7057;49.984;8.404;2022-08-19T09:08:46;11.20;;;10.10;;
13969;SDS011;7057;49.984;8.404;2022-08-19T09:11:30;10.98;;;9.95;;
13969;SDS011;7057;49.984;8.404;2022-08-19T09:14:07;10.13;;;9.23;;
13969;SDS011;7057;49.984;8.404;2022-08-19T09:16:41;12.18;;;10.98;;
13969;SDS011;7057;49.984;8.404;2022-08-19T09:19:10;12.30;;;11.00;;
13969;SDS011;7057;49.984;8.404;2022-08-19T09:21:37;13.77;;;10.88;;
13969;SDS011;7057;49.984;8.404;2022-08-19T09:24:04;12.15;;;10.95;;
13969;SDS011;7057;49.984;8.404;2022-08-19T09:26:32;13.93;;;12.37;;
13969;SDS011;7057;49.984;8.404;2022-08-19T09:28:59;11.95;;;10.70;;
13969;SDS011;7057;49.984;8.404;2022-08-19T09:31:30;13.20;;;11.80;;
13969;SDS011;7057;49.984;8.404;2022-08-19T09:33:58;12.57;;;11.23;;
13969;SDS011;7057;49.984;8.404;2022-08-19T09:36:27;13.80;;;12.40;;
13969;SDS011;7057;49.984;8.404;2022-08-19T09:38:58;13.25;;;11.88;;
13969;SDS011;7057;49.984;8.404;2022-08-19T09:41:26;13.13;;;11.82;;
13969;SDS011;7057;49.984;8.404;2022-08-19T09:43:55;14.63;;;12.65;;
13969;SDS011;7057;49.984;8.404;2022-08-19T09:46:24;11.73;;;10.60;;
13969;SDS011;7057;49.984;8.404;2022-08-19T09:48:53;14.32;;;12.98;;
13969;SDS011;7057;49.984;8.404;2022-08-19T09:51:24;13.35;;;12.05;;
13969;SDS011;7057;49.984;8.404;2022-08-19T09:53:58;13.70;;;11.75;;
13969;SDS011;7057;49.984;8.404;2022-08-19T09:56:26;13.70;;;12.25;;
13969;SDS011;7057;49.984;8.404;2022-08-19T09:58:54;14.10;;;12.43;;
13969;SDS011;7057;49.984;8.404;2022-08-19T10:01:22;13.43;;;12.13;;
13969;SDS011;7057;49.984;8.404;2022-08-19T10:03:52;13.70;;;12.30;;
13969;SDS011;7057;49.984;8.404;2022-08-19T10:06:22;15.20;;;13.60;;
13969;SDS011;7057;49.984;8.404;2022-08-19T10:08:51;14.13;;;12.75;;
13969;SDS011;7057;49.984;8.404;2022-08-19T10:11:20;16.58;;;14.98;;
13969;SDS011;7057;49.984;8.404;2022-08-19T10:13:48;14.93;;;13.43;;
13969;SDS011;7057;49.984;8.404;2022-08-19T10:16:16;15.50;;;13.95;;
13969;SDS011;7057;49.984;8.404;2022-08-19T10:18:45;15.40;;;13.80;;
13969;SDS011;7057;49.984;8.404;2022-08-19T10:21:13;16.13;;;14.57;;
13969;SDS011;7057;49.984;8.404;2022-08-19T10:23:42;16.52;;;14.85;;
13969;SDS011;7057;49.984;8.404;2022-08-19T10:26:11;15.83;;;14.33;;
13969;SDS011;7057;49.984;8.404;2022-08-19T10:28:42;13.27;;;12.05;;
13969;SDS011;7057;49.984;8.404;2022-08-19T10:31:11;13.80;;;12.40;;
13969;SDS011;7057;49.984;8.404;2022-08-19T10:33:41;14.70;;;13.27;;
13969;SDS011;7057;49.984;8.404;2022-08-19T10:36:09;14.70;;;13.20;;
13969;SDS011;7057;49.984;8.404;2022-08-19T10:38:40;14.05;;;12.65;;
13969;SDS011;7057;49.984;8.404;2022-08-19T10:41:09;14.40;;;12.95;;
13969;SDS011;7057;49.984;8.404;2022-08-19T10:43:38;13.30;;;11.90;;
13969;SDS011;7057;49.984;8.404;2022-08-19T10:46:07;12.73;;;11.48;;
13969;SDS011;7057;49.984;8.404;2022-08-19T10:48:37;13.73;;;12.32;;
13969;SDS011;7057;49.984;8.404;2022-08-19T10:51:04;13.48;;;12.18;;
13969;SDS011;7057;49.984;8.404;2022-08-19T10:53:49;13.27;;;11.97;;
13969;SDS011;7057;49.984;8.404;2022-08-19T10:56:17;14.13;;;12.70;;
13969;SDS011;7057;49.984;8.404;2022-08-19T10:59:02;13.67;;;12.37;;
13969;SDS011;7057;49.984;8.404;2022-08-19T11:01:32;12.82;;;11.57;;
13969;SDS011;7057;49.984;8.404;2022-08-19T11:04:00;11.75;;;10.55;;
13969;SDS011;7057;49.984;8.404;2022-08-19T11:06:28;12.52;;;11.25;;
13969;SDS011;7057;49.984;8.404;2022-08-19T11:08:57;12.30;;;11.10;;
13969;SDS011;7057;49.984;8.404;2022-08-19T11:11:25;12.48;;;11.18;;
13969;SDS011;7057;49.984;8.404;2022-08-19T11:13:53;11.88;;;10.77;;
13969;SDS011;7057;49.984;8.404;2022-08-19T11:16:21;11.77;;;10.68;;
13969;SDS011;7057;49.984;8.404;2022-08-19T11:18:53;9.77;;;8.88;;
13969;SDS011;7057;49.984;8.404;2022-08-19T11:21:24;7.50;;;6.80;;
13969;SDS011;7057;49.984;8.404;2022-08-19T11:23:55;6.25;;;5.75;;
13969;SDS011;7057;49.984;8.404;2022-08-19T11:26:23;7.35;;;6.65;;
13969;SDS011;7057;49.984;8.404;2022-08-19T11:28:51;6.85;;;6.20;;
13969;SDS011;7057;49.984;8.404;2022-08-19T11:31:22;6.38;;;5.78;;
13969;SDS011;7057;49.984;8.404;2022-08-19T11:33:52;6.75;;;6.15;;
13969;SDS011;7057;49.984;8.404;2022-08-19T11:36:20;7.20;;;6.60;;
13969;SDS011;7057;49.984;8.404;2022-08-19T11:38:48;7.82;;;7.13;;
13969;SDS011;7057;49.984;8.404;2022-08-19T11:41:18;7.07;;;6.47;;
13969;SDS011;7057;49.984;8.404;2022-08-19T11:43:48;6.47;;;5.87;;
13969;SDS011;7057;49.984;8.404;2022-08-19T11:46:16;6.53;;;5.93;;
13969;SDS011;7057;49.984;8.404;2022-08-19T11:48:43;6.40;;;5.80;;
13969;SDS011;7057;49.984;8.404;2022-08-19T11:51:13;6.47;;;5.87;;
13969;SDS011;7057;49.984;8.404;2022-08-19T11:53:42;6.15;;;5.55;;
13969;SDS011;7057;49.984;8.404;2022-08-19T11:56:10;6.32;;;5.30;;
13969;SDS011;7057;49.984;8.404;2022-08-19T11:58:38;6.20;;;5.70;;
13969;SDS011;7057;49.984;8.404;2022-08-19T12:01:07;6.10;;;5.50;;
13969;SDS011;7057;49.984;8.404;2022-08-19T12:03:36;6.15;;;5.60;;
13969;SDS011;7057;49.984;8.404;2022-08-19T12:06:04;6.07;;;5.57;;
13969;SDS011;7057;49.984;8.404;2022-08-19T12:08:34;6.03;;;5.43;;
13969;SDS011;7057;49.984;8.404;2022-08-19T12:11:01;5.95;;;5.40;;
13969;SDS011;7057;49.984;8.404;2022-08-19T12:13:29;5.40;;;4.90;;
13969;SDS011;7057;49.984;8.404;2022-08-19T12:15:57;5.40;;;4.90;;
13969;SDS011;7057;49.984;8.404;2022-08-19T12:18:24;5.13;;;4.70;;
13969;SDS011;7057;49.984;8.404;2022-08-19T12:20:52;5.05;;;4.65;;
13969;SDS011;7057;49.984;8.404;2022-08-19T12:23:21;5.03;;;4.63;;
13969;SDS011;7057;49.984;8.404;2022-08-19T12:25:50;5.00;;;4.50;;
13969;SDS011;7057;49.984;8.404;2022-08-19T12:28:18;5.13;;;4.67;;
13969;SDS011;7057;49.984;8.404;2022-08-19T12:30:46;4.47;;;4.10;;
13969;SDS011;7057;49.984;8.404;2022-08-19T12:33:13;4.70;;;4.30;;
13969;SDS011;7057;49.984;8.404;2022-08-19T12:35:41;4.90;;;4.50;;
13969;SDS011;7057;49.984;8.404;2022-08-19T12:38:09;4.53;;;4.13;;
13969;SDS011;7057;49.984;8.404;2022-08-19T12:40:37;4.53;;;4.13;;
13969;SDS011;7057;49.984;8.404;2022-08-19T12:43:06;4.53;;;4.13;;
13969;SDS011;7057;49.984;8.404;2022-08-19T12:45:34;4.82;;;4.43;;
13969;SDS011;7057;49.984;8.404;2022-08-19T12:48:03;4.15;;;3.75;;
13969;SDS011;7057;49.984;8.404;2022-08-19T12:50:31;4.25;;;3.92;;
13969;SDS011;7057;49.984;8.404;2022-08-19T12:52:58;3.95;;;3.60;;
13969;SDS011;7057;49.984;8.404;2022-08-19T12:55:25;4.20;;;3.75;;
13969;SDS011;7057;49.984;8.404;2022-08-19T12:57:53;4.80;;;4.40;;
13969;SDS011;7057;49.984;8.404;2022-08-19T13:00:22;4.43;;;4.03;;
13969;SDS011;7057;49.984;8.404;2022-08-19T13:02:50;5.22;;;4.45;;
13969;SDS011;7057;49.984;8.404;2022-08-19T13:05:19;4.95;;;4.55;;
13969;SDS011;7057;49.984;8.404;2022-08-19T13:07:49;4.88;;;4.47;;
13969;SDS011;7057;49.984;8.404;2022-08-19T13:10:18;4.80;;;4.30;;
13969;SDS011;7057;49.984;8.404;2022-08-19T13:12:49;4.05;;;3.70;;
13969;SDS011;7057;49.984;8.404;2022-08-19T13:15:18;4.80;;;4.38;;
13969;SDS011;7057;49.984;8.404;2022-08-19T13:17:48;4.85;;;4.38;;
13969;SDS011;7057;49.984;8.404;2022-08-19T13:20:16;5.05;;;4.50;;
13969;SDS011;7057;49.984;8.404;2022-08-19T13:22:45;4.47;;;4.07;;
13969;SDS011;7057;49.984;8.404;2022-08-19T13:25:14;4.43;;;4.03;;
13969;SDS011;7057;49.984;8.404;2022-08-19T13:27:44;5.57;;;4.05;;
13969;SDS011;7057;49.984;8.404;2022-08-19T13:30:14;4.13;;;3.72;;
13969;SDS011;7057;49.984;8.404;2022-08-19T13:33:01;3.90;;;3.60;;
13969;SDS011;7057;49.984;8.404;2022-08-19T13:35:37;3.83;;;3.50;;
13969;SDS011;7057;49.984;8.404;2022-08-19T13:38:05;4.10;;;3.78;;
13969;SDS011;7057;49.984;8.404;2022-08-19T13:40:33;4.40;;;4.00;;
13969;SDS011;7057;49.984;8.404;2022-08-19T13:43:01;4.90;;;4.10;;
13969;SDS011;7057;49.984;8.404;2022-08-19T13:45:30;4.00;;;3.70;;
13969;SDS011;7057;49.984;8.404;2022-08-19T13:48:01;4.43;;;4.03;;
13969;SDS011;7057;49.984;8.404;2022-08-19T13:50:32;4.65;;;3.83;;
13969;SDS011;7057;49.984;8.404;2022-08-19T13:53:00;4.63;;;4.22;;
13969;SDS011;7057;49.984;8.404;2022-08-19T13:55:29;5.00;;;4.50;;
13969;SDS011;7057;49.984;8.404;2022-08-19T13:57:57;5.35;;;4.85;;
13969;SDS011;7057;49.984;8.404;2022-08-19T14:00:27;5.53;;;5.10;;
13969;SDS011;7057;49.984;8.404;2022-08-19T14:02:56;5.13;;;4.72;;
13969;SDS011;7057;49.984;8.404;2022-08-19T14:05:26;5.20;;;4.70;;
13969;SDS011;7057;49.984;8.404;2022-08-19T14:07:55;4.43;;;4.03;;
13969;SDS011;7057;49.984;8.404;2022-08-19T14:10:23;5.38;;;4.90;;
13969;SDS011;7057;49.984;8.404;2022-08-19T14:12:52;5.75;;;5.25;;
13969;SDS011;7057;49.984;8.404;2022-08-19T14:15:20;5.82;;;5.25;;
13969;SDS011;7057;49.984;8.404;2022-08-19T14:17:49;5.82;;;5.22;;
13969;SDS011;7057;49.984;8.404;2022-08-19T14:20:17;5.60;;;5.03;;
13969;SDS011;7057;49.984;8.404;2022-08-19T14:22:47;5.70;;;5.15;;
13969;SDS011;7057;49.984;8.404;2022-08-19T14:25:15;5.60;;;5.07;;
13969;SDS011;7057;49.984;8.404;2022-08-19T14:27:45;5.60;;;5.20;;
13969;SDS011;7057;49.984;8.404;2022-08-19T14:30:14;5.20;;;4.80;;
13969;SDS011;7057;49.984;8.404;2022-08-19T14:32:47;5.70;;;5.20;;
13969;SDS011;7057;49.984;8.404;2022-08-19T14:35:14;6.75;;;6.15;;
13969;SDS011;7057;49.984;8.404;2022-08-19T14:37:43;6.50;;;6.00;;
13969;SDS011;7057;49.984;8.404;2022-08-19T14:40:13;6.40;;;5.80;;
13969;SDS011;7057;49.984;8.404;2022-08-19T14:42:41;5.82;;;5.32;;
13969;SDS011;7057;49.984;8.404;2022-08-19T14:45:09;6.00;;;5.40;;
13969;SDS011;7057;49.984;8.404;2022-08-19T14:47:37;5.65;;;5.05;;
13969;SDS011;7057;49.984;8.404;2022-08-19T14:50:05;5.40;;;4.90;;
13969;SDS011;7057;49.984;8.404;2022-08-19T14:52:33;5.57;;;5.07;;
13969;SDS011;7057;49.984;8.404;2022-08-19T14:55:01;5.15;;;4.75;;